KDUJ/DUJ METAR and TAF weather

Enter ICAO airport designator
Station Type Date Time Source
KDUJ METAR 2019/02/23 02:53 UTC NOAA

KDUJ 230253Z AUTO 00000KT 10SM CLR M01/M08 A3036 RMK AO2 SLP300 T10061078 53001 $


Station Type Date Time Source
KDUJ Decoded METAR 2019/02/23 02:53 UTC NOAA

DU BOIS-JEFFERSON COUNTY, PA, United States (KDUJ) 41-11N 078-53W
Feb 22, 2019 - 09:53 PM EST / 2019.02.23 0253 UTC
Wind: Calm:0
Visibility: 10 mile(s):0
Sky conditions: clear
Temperature: 30.9 F (-0.6 C)
Dew Point: 18.0 F (-7.8 C)
Relative Humidity: 58%
Pressure (altimeter): 30.36 in. Hg (1028 hPa)
Pressure tendency: 0.00 inches (0.1 hPa) higher than three hours ago
ob: KDUJ 230253Z AUTO 00000KT 10SM CLR M01/M08 A3036 RMK AO2 SLP300 T10061078 53001
cycle: 3

Station Type Date Time Source
KDUJ TAF 2019/02/22 18:39 UTC NOAA

TAF KDUJ 221737Z 2218/2318 33005KT P6SM BKN250
FM231200 10007KT P6SM BKN250


Example: see airport list